Aeroporto :
LOGIN :

Iscrizione | Disclaimer

   EN    FR    IT 

 










Sommario :    VFR   VFR Marginale   IFR   IFR Intensivo   IFR Molto Intensivo
Visibilità : 
Base nubi : 
>= 8 km
>= 3000ft
5 / 8 km
1000 / 3000 ft
1500m / 5 km
500 / 1000 ft
800 / 1500m
200 / 500 ft
< 800m
< 200 ft
Simboli :   Temporali  Nebbia  Neve Forte  Precipitazioni Forti  Vento > 20 kt
SIGMETs :   Varie  Temporali  Ghiacco  Turbolenza  Onda orograficha  Ceneri Vulcaniche






- Altitudine del aeroporto : 79 ft
- Codice IATA : NSY


LICZ - Sigonella (Mil) Catania

ULTIMO METAR :
  • 182055Z 28005KT CAVOK 08/08 Q1023 RMK SKC VIS MIN 9999 WIND THR28 28005KT WIND THR10 30005KT A3022 BLU

METARs OBSOLETI :
  • 181955Z 30003KT CAVOK 09/09 Q1023 RMK SKC VIS MIN 9999 WIND THR28 27003KT WIND THR10 30003KT A3022 BLU
  • 181855Z 13002KT CAVOK 10/10 Q1022 RMK SKC VIS MIN 9999 WIND THR28 16004KT WIND THR10 27001KT A3020 BLU

TAF TAF LICZ
Valido dal 18 a 18 ore il 19 a 18 ore UTC


181700Z 1818/1918 VRB03KT CAVOK
TEMPO 1819/1906 3000 BR



MetMap, La meteo Aeronautica in un colpo d'occhio ! - Copyright ORBIFLY Dicembre 2007 - Disclaimer

ORBIFLY MET'MAP TEAM :

Programmazione e sviluppo : Alexandra Zaïnal
Concezione : Baudouin d'Aumeries
Aiuto per la programmazione : Marc-Olivier Méhu
Supporto tecnico e logistico : Manuel Goepfert
Aiuto per la traduzione : Arnaldo La Scala

Contatto : metmap@orbifly.com




FONTI E CREDITI :

   NOAA